EDT,Max TemperatureF,Mean TemperatureF,Min TemperatureF,Max Dew PointF,MeanDew PointF,Min DewpointF,Max Humidity, Mean Humidity, Min Humidity, Max Sea Level PressureIn, Mean Sea Level PressureIn, Min Sea Level PressureIn, Max VisibilityMiles, Mean VisibilityMiles, Min VisibilityMiles, Max Wind SpeedMPH, Mean Wind SpeedMPH, Max Gust SpeedMPH,PrecipitationIn, CloudCover, Events, WindDirDegrees
2013-10-1,81,66,52,60,54,51,94,69,34,30.12,30.08,30.03,10,10,7,7,2,,0.00,2,,246
2013-10-2,83,68,54,59,56,51,96,69,33,30.15,30.09,30.06,10,8,3,6,3,,0.00,0,,265
2013-10-3,85,72,58,62,58,51,94,68,31,30.15,30.11,30.07,10,10,5,8,3,,0.00,1,,199
2013-10-4,86,74,61,63,60,53,95,68,32,30.14,30.10,30.06,10,9,4,10,5,,0.00,1,,226
2013-10-5,89,75,61,64,60,54,95,68,32,30.12,30.09,30.04,10,9,2,9,3,,0.00,0,,206
2013-10-6,84,74,63,68,64,62,96,76,48,30.08,30.03,29.97,10,9,2,10,5,18,0.00,2,,177
2013-10-7,72,68,62,70,66,55,95,90,76,30.03,29.92,29.87,10,9,2,15,6,24,1.08,8,Rain,196
2013-10-8,62,59,56,56,46,42,81,62,54,30.23,30.16,30.02,10,10,10,16,10,24,0.00,5,,24
2013-10-9,60,56,53,54,50,46,94,80,67,30.22,30.17,30.10,10,9,5,14,9,21,0.27,6,Rain,6
2013-10-10,59,56,52,57,54,51,95,93,88,30.10,30.01,29.95,10,8,3,14,11,21,0.11,8,Rain,353
2013-10-11,65,61,57,60,58,56,96,91,81,29.99,29.95,29.91,10,7,2,9,6,,0.07,8,Rain,346
2013-10-12,66,62,59,64,61,58,96,94,87,30.10,30.03,29.96,10,5,1,8,5,,0.07,8,Rain,349
2013-10-13,65,62,60,63,60,59,96,95,88,30.24,30.17,30.09,10,5,2,10,6,,0.06,8,Rain,8
2013-10-14,63,59,54,60,58,54,96,92,82,30.27,30.23,30.21,10,6,2,12,7,17,0.07,7,Rain,18
2013-10-15,69,60,50,60,55,50,97,84,60,30.22,30.14,30.08,10,8,0,8,4,,0.00,5,Fog,6
2013-10-16,70,65,60,61,60,59,96,86,70,30.08,30.03,29.97,10,8,3,5,0,,0.00,6,,175
2013-10-17,73,66,60,64,60,58,93,82,61,29.97,29.91,29.85,10,10,10,9,5,,0.01,4,Rain,216
2013-10-18,68,60,52,63,49,41,94,69,39,30.06,29.99,29.89,10,10,7,8,3,,0.01,3,,329
2013-10-19,66,60,54,62,57,52,96,92,86,30.00,29.92,29.83,10,7,0,6,0,,0.02,6,Rain,175
2013-10-20,61,52,43,56,41,32,94,68,33,30.13,30.05,29.91,10,10,5,9,2,,0.00,0,,360
2013-10-21,66,52,38,48,42,34,96,72,30,30.17,30.10,30.01,10,10,5,6,1,,0.00,0,,173
2013-10-22,68,59,50,56,51,46,96,79,45,30.01,29.91,29.82,10,10,3,8,3,,0.00,2,,213
2013-10-23,64,54,45,56,45,32,97,72,37,29.99,29.78,29.70,10,7,0,12,4,23,0.27,4,Fog-Rain,303
2013-10-24,57,46,36,35,31,27,86,59,32,30.19,30.10,29.99,10,10,10,10,4,17,0.00,2,,283
2013-10-25,54,46,37,35,28,22,84,55,30,30.36,30.28,30.19,10,10,10,12,4,18,0.00,2,,317
2013-10-26,58,44,30,33,29,25,94,58,28,30.35,30.22,30.05,10,10,10,15,4,21,0.00,1,,223
2013-10-27,66,54,43,40,35,31,74,52,27,30.13,30.08,30.04,10,10,10,12,5,,0.00,1,,257
2013-10-28,69,55,41,52,44,39,93,69,35,30.27,30.21,30.13,10,10,7,6,3,,0.00,4,,218
2013-10-29,69,60,50,52,51,49,95,75,49,30.35,30.30,30.25,10,9,3,6,1,,0.00,4,,14
2013-10-30,72,63,54,55,52,48,90,74,51,30.31,30.25,30.17,10,10,5,12,5,17,0.00,5,,184
2013-10-31,73,64,55,59,54,52,94,73,49,30.20,30.09,29.92,10,9,7,15,6,21,0.00,1,,190